Time;durP1;ratioP1;P1;durP2;ratioP2;P2;SDS_P1;SDS_P2;PMS_P1;PMS_P2;Temp;Humidity;BMP_temperature;BMP_pressure;BME280_temperature;BME280_humidity;BME280_pressure;Samples;Min_cycle;Max_cycle;Signal;HPM_P1;HPM_P2
2022/11/04 00:01:30;;;;;;;2.80;2.70;;;;;;;-142.65;89.33;50180.75;5116647;28;20222;-71
2022/11/04 00:03:56;;;;;;;2.20;2.20;;;;;;;-142.65;89.44;50170.78;5116723;28;20187;-71
2022/11/04 00:06:23;;;;;;;3.80;2.63;;;;;;;-142.65;89.48;50174.75;5116642;28;20238;-71
2022/11/04 00:08:51;;;;;;;4.73;2.60;;;;;;;-142.65;89.32;50168.78;5116601;28;20188;-71
2022/11/04 00:14:03;;;;;;;2.90;2.80;;;;;;;;;;5116621;28;20219;-70
2022/11/04 00:28:41;;;;;;;2.20;2.20;;;;;;;-142.65;88.79;50182.72;5071686;28;20275;-70
2022/11/04 00:30:31;;;;;;;2.87;2.77;;;;;;;-142.65;87.07;50168.78;5116260;28;20173;-70
2022/11/04 00:35:49;;;;;;;2.43;2.43;;;;;;;-142.65;86.98;50174.75;5116396;28;20184;-70
2022/11/04 00:38:16;;;;;;;2.80;2.80;;;;;;;-142.65;87.20;50170.78;5115525;28;20191;-70
2022/11/04 00:40:43;;;;;;;2.97;2.77;;;;;;;-142.65;87.22;50174.75;5115354;28;20199;-70
2022/11/04 00:43:10;;;;;;;3.00;3.00;;;;;;;-142.65;87.26;50172.78;5115857;28;20201;-70
2022/11/04 00:45:38;;;;;;;2.63;2.63;;;;;;;-142.65;87.16;50176.75;5116422;28;20211;-70
2022/11/04 00:48:05;;;;;;;3.60;2.93;;;;;;;-142.65;87.05;50186.72;5116377;28;20544;-70
2022/11/04 00:50:32;;;;;;;4.20;2.50;;;;;;;;;;5116364;28;20185;-70
2022/11/04 00:53:02;;;;;;;3.07;3.00;;;;;;;-142.65;87.04;50170.78;5115615;28;20596;-70
2022/11/04 00:55:28;;;;;;;3.10;2.97;;;;;;;-142.65;86.68;50170.78;5115976;28;20180;-70
2022/11/04 00:57:57;;;;;;;2.70;2.70;;;;;;;-142.65;87.23;50170.78;5115965;28;20183;-70
2022/11/04 01:00:23;;;;;;;2.77;2.70;;;;;;;;;;5116215;28;20192;-70
2022/11/04 01:02:49;;;;;;;3.10;3.00;;;;;;;-142.65;86.67;50172.78;5097169;28;20220;-70
2022/11/04 01:05:16;;;;;;;3.10;3.10;;;;;;;-142.65;86.50;50178.75;5115496;28;20679;-70
2022/11/04 01:07:42;;;;;;;2.77;2.67;;;;;;;-142.65;86.46;50174.75;5115453;28;20654;-70
2022/11/04 01:10:09;;;;;;;3.07;2.90;;;;;;;-142.65;86.09;50174.75;5115427;28;20676;-70
2022/11/04 01:12:36;;;;;;;3.27;3.27;;;;;;;-142.65;86.60;50172.78;5115509;28;20220;-70
2022/11/04 01:15:02;;;;;;;3.80;3.73;;;;;;;-142.65;86.68;50174.75;5115184;28;20697;-70
2022/11/04 01:17:29;;;;;;;3.57;3.47;;;;;;;-142.65;86.98;50180.75;5115547;28;20195;-70
2022/11/04 01:19:55;;;;;;;3.70;3.70;;;;;;;-142.65;86.93;50180.75;5115764;28;20193;-70
2022/11/04 01:22:21;;;;;;;4.67;4.40;;;;;;;-142.65;87.82;50176.75;5115360;28;20216;-70
2022/11/04 01:24:48;;;;;;;4.37;3.93;;;;;;;-142.65;88.25;50184.72;5115451;28;20186;-70
2022/11/04 01:27:14;;;;;;;4.57;4.37;;;;;;;-142.65;89.20;50170.78;5115135;28;20267;-70
2022/11/04 01:29:40;;;;;;;4.50;4.20;;;;;;;-142.65;89.13;50178.75;5114998;28;20196;-70
2022/11/04 01:32:07;;;;;;;4.77;4.63;;;;;;;-142.65;89.72;50174.75;5114908;28;20204;-70
2022/11/04 01:34:33;;;;;;;3.90;3.90;;;;;;;-142.65;89.95;50170.78;5115102;28;20208;-70
2022/11/04 01:37:07;;;;;;;4.40;4.40;;;;;;;-142.65;90.24;50172.78;5115146;28;20185;-70
2022/11/04 01:39:34;;;;;;;4.43;4.27;;;;;;;-142.65;90.44;50180.75;5115660;28;20554;-70
2022/11/04 01:42:00;;;;;;;5.40;5.30;;;;;;;;;;5114673;28;20791;-70
2022/11/04 01:44:46;;;;;;;5.67;5.50;;;;;;;-142.65;90.65;50182.72;5115593;28;20216;-70
2022/11/04 01:47:27;;;;;;;6.67;6.37;;;;;;;-142.65;90.11;50174.75;5114729;28;20173;-70
2022/11/04 01:50:10;;;;;;;5.73;5.60;;;;;;;-142.65;90.19;50182.72;5114636;28;20176;-70
2022/11/04 01:52:52;;;;;;;5.20;4.90;;;;;;;-142.65;89.81;50182.72;5115093;28;20227;-70
2022/11/04 01:55:22;;;;;;;5.73;5.63;;;;;;;-142.65;89.95;50170.78;5114754;28;20554;-70
2022/11/04 01:57:52;;;;;;;4.80;4.80;;;;;;;-142.65;90.06;50182.72;5114491;28;20188;-70
2022/11/04 02:00:19;;;;;;;4.40;4.30;;;;;;;-142.65;89.90;50178.75;5114704;28;20284;-70
2022/11/04 02:03:17;;;;;;;5.07;4.97;;;;;;;-142.65;90.25;50178.75;5114326;28;20212;-70
2022/11/04 02:05:46;;;;;;;5.90;5.60;;;;;;;-142.65;89.66;50180.75;5106965;28;20583;-70
2022/11/04 02:08:14;;;;;;;6.60;6.27;;;;;;;-142.65;89.53;50176.75;5114303;28;20187;-70
2022/11/04 02:10:47;;;;;;;5.20;5.00;;;;;;;-142.65;89.02;50172.78;5114546;28;20198;-70
2022/11/04 02:13:14;;;;;;;5.10;5.00;;;;;;;-142.65;89.37;50170.78;5114246;28;20207;-70
2022/11/04 02:16:23;;;;;;;5.57;5.17;;;;;;;-142.65;89.65;50170.78;5114481;28;20184;-70
2022/11/04 02:19:04;;;;;;;6.27;6.17;;;;;;;-142.65;89.20;50172.78;5114151;28;20174;-70
2022/11/04 02:21:52;;;;;;;5.60;5.10;;;;;;;-142.65;88.93;50170.78;5114244;28;20211;-70
2022/11/04 02:24:39;;;;;;;4.40;4.40;;;;;;;-142.65;88.87;50172.78;5114310;28;20208;-70
2022/11/04 02:27:17;;;;;;;4.57;4.27;;;;;;;-142.65;88.59;50176.75;5114245;28;20199;-70
2022/11/04 02:29:50;;;;;;;5.27;5.13;;;;;;;-142.65;88.68;50180.75;5113939;28;20657;-70
2022/11/04 02:32:38;;;;;;;5.93;5.70;;;;;;;-142.65;88.52;50174.75;5114430;28;20208;-70
2022/11/04 02:35:17;;;;;;;5.87;5.13;;;;;;;-142.65;88.28;50170.78;5114393;28;20221;-70
2022/11/04 02:37:55;;;;;;;5.70;5.10;;;;;;;-142.65;88.58;50180.75;5114180;28;20166;-70
2022/11/04 02:40:50;;;;;;;4.43;4.27;;;;;;;-142.65;88.63;50170.78;5114368;28;20185;-70
2022/11/04 02:43:31;;;;;;;4.60;4.40;;;;;;;-142.65;88.63;50180.75;5113758;28;20216;-70
2022/11/04 02:46:14;;;;;;;8.97;4.87;;;;;;;-142.65;88.50;50170.78;5114052;28;20166;-70
2022/11/04 02:48:52;;;;;;;5.57;5.10;;;;;;;-142.65;88.60;50172.78;5114558;28;20176;-70
2022/11/04 02:51:25;;;;;;;4.93;4.83;;;;;;;-142.65;88.85;50182.72;5114381;28;20637;-71
2022/11/04 02:54:08;;;;;;;4.77;4.47;;;;;;;-142.65;89.10;50168.78;5113876;28;20192;-71
2022/11/04 02:56:39;;;;;;;4.13;4.00;;;;;;;-142.65;89.21;50174.75;5113702;28;20181;-70
2022/11/04 02:59:16;;;;;;;4.50;4.40;;;;;;;-142.65;89.36;50170.78;5114219;28;20177;-70
2022/11/04 03:01:46;;;;;;;5.80;4.80;;;;;;;-142.65;89.28;50184.72;5095346;28;20215;-71
2022/11/04 03:04:17;;;;;;;5.00;4.60;;;;;;;-142.65;88.90;50178.75;5118481;28;20573;-70
2022/11/04 03:06:48;;;;;;;9.37;4.47;;;;;;;-142.65;88.63;50176.75;5117830;28;20180;-70
2022/11/04 03:09:17;;;;;;;4.93;4.70;;;;;;;-142.65;88.96;50164.81;5118619;28;20184;-70
2022/11/04 03:11:49;;;;;;;6.03;4.13;;;;;;;-142.65;88.94;50174.75;5117667;28;20553;-70
2022/11/04 03:14:19;;;;;;;3.67;3.53;;;;;;;;;;5117766;28;20222;-70
2022/11/04 03:16:50;;;;;;;3.67;3.57;;;;;;;-142.65;88.94;50176.75;5118216;28;20188;-70
2022/11/04 03:19:55;;;;;;;2.80;2.70;;;;;;;-142.65;88.90;50170.78;5117867;28;20181;-70
2022/11/04 03:22:25;;;;;;;3.43;3.30;;;;;;;-142.65;89.25;50170.78;5015221;28;20222;-70
2022/11/04 03:24:52;;;;;;;3.60;3.00;;;;;;;-142.65;89.13;50172.78;5102441;28;20246;-70
2022/11/04 03:27:18;;;;;;;2.30;2.10;;;;;;;;;;5117659;28;20177;-70
2022/11/04 03:30:08;;;;;;;2.50;2.37;;;;;;;-142.65;89.17;50172.78;5117392;28;20620;-70
2022/11/04 03:32:59;;;;;;;2.67;2.53;;;;;;;-142.65;88.99;50184.72;5117184;28;20694;-70
2022/11/04 03:35:26;;;;;;;3.73;3.07;;;;;;;-142.65;89.04;50182.72;5117762;28;20211;-70
2022/11/04 03:37:53;;;;;;;2.60;2.47;;;;;;;-142.65;89.06;50180.75;5117534;28;20198;-70
2022/11/04 03:40:20;;;;;;;2.83;2.73;;;;;;;-142.65;89.09;50168.78;5117156;28;20276;-70
2022/11/04 03:43:02;;;;;;;3.20;2.90;;;;;;;-142.65;88.77;50170.78;5117036;28;20207;-69
2022/11/04 03:45:28;;;;;;;2.13;2.13;;;;;;;-142.65;88.55;50180.75;5117090;28;20180;-69
2022/11/04 03:47:55;;;;;;;3.37;3.17;;;;;;;-142.65;88.60;50176.75;5117579;28;20182;-69
2022/11/04 03:50:30;;;;;;;2.87;2.77;;;;;;;-142.65;88.57;50172.78;5116967;28;20195;-69
2022/11/04 03:52:58;;;;;;;3.03;2.97;;;;;;;-142.65;88.65;50178.75;5116850;28;20566;-70
2022/11/04 03:55:29;;;;;;;3.43;2.77;;;;;;;;;;5117400;28;20231;-70
2022/11/04 03:58:12;;;;;;;2.53;2.20;;;;;;;-142.65;88.79;50174.75;5117431;28;20185;-69
2022/11/04 04:00:50;;;;;;;7.60;2.23;;;;;;;-142.65;88.78;50170.78;5116798;28;20180;-69
2022/11/04 04:03:24;;;;;;;6.60;2.33;;;;;;;-142.65;88.75;50180.75;5116721;28;20219;-70
2022/11/04 04:05:54;;;;;;;4.43;2.77;;;;;;;-142.65;88.90;50180.75;5117003;28;20176;-70
2022/11/04 04:08:41;;;;;;;3.23;3.07;;;;;;;-142.65;89.20;50172.78;5117196;28;20187;-70
2022/11/04 04:11:28;;;;;;;2.63;2.53;;;;;;;-142.65;89.21;50178.75;5117056;28;20190;-70
2022/11/04 04:14:03;;;;;;;4.43;2.30;;;;;;;-142.65;88.90;50178.75;5116379;28;20193;-70
2022/11/04 04:16:44;;;;;;;2.40;2.40;;;;;;;-142.65;89.08;50174.75;5116790;28;20176;-70
2022/11/04 04:19:14;;;;;;;12.73;3.67;;;;;;;-142.65;88.91;50168.78;5116715;28;20191;-70
2022/11/04 04:21:50;;;;;;;8.37;2.73;;;;;;;-142.65;88.66;50180.75;5116359;28;20212;-70
2022/11/04 04:29:53;;;;;;;2.50;2.47;;;;;;;-142.65;89.15;50178.75;5116465;28;20569;-70
2022/11/04 04:32:23;;;;;;;2.43;2.30;;;;;;;-142.65;89.97;50182.72;5116059;28;20225;-70
2022/11/04 04:34:49;;;;;;;5.17;3.10;;;;;;;-142.65;90.00;50174.75;5116351;28;20201;-70
2022/11/04 04:37:25;;;;;;;7.97;3.03;;;;;;;-142.65;90.15;50178.75;5116021;28;20185;-70
2022/11/04 04:45:40;;;;;;;3.07;2.83;;;;;;;-142.65;90.04;50174.75;5115924;28;20551;-70
2022/11/04 04:48:10;;;;;;;3.63;3.20;;;;;;;-142.65;90.18;50182.72;5116182;28;20188;-70
2022/11/04 04:50:41;;;;;;;3.00;2.90;;;;;;;-142.65;90.04;50172.78;5116098;28;20662;-70
2022/11/04 04:53:07;;;;;;;2.50;2.30;;;;;;;-142.65;90.22;50172.78;5116030;28;20582;-70
2022/11/04 04:55:34;;;;;;;3.40;3.20;;;;;;;-142.65;90.20;50174.75;5115675;28;20205;-70
2022/11/04 04:58:08;;;;;;;3.20;2.93;;;;;;;-142.65;90.25;50174.75;5116010;28;20189;-70
2022/11/04 05:00:34;;;;;;;3.07;2.83;;;;;;;-142.65;89.89;50182.72;5115607;28;20676;-70
2022/11/04 05:03:01;;;;;;;2.90;2.73;;;;;;;-142.65;89.90;50170.78;5115494;28;20205;-70
2022/11/04 05:05:27;;;;;;;3.93;3.73;;;;;;;-142.65;89.66;50174.75;5115800;28;20181;-70
2022/11/04 05:07:53;;;;;;;4.47;3.50;;;;;;;-142.65;89.60;50170.78;5097325;28;20670;-70
2022/11/04 05:10:20;;;;;;;3.03;2.90;;;;;;;-142.65;89.92;50174.75;5115656;28;20179;-70
2022/11/04 05:15:31;;;;;;;3.53;3.07;;;;;;;-142.65;89.50;50182.72;5115231;28;20201;-70
2022/11/04 05:18:00;;;;;;;5.53;2.90;;;;;;;-142.65;89.48;50182.72;5115287;28;20185;-70
2022/11/04 05:20:29;;;;;;;4.90;2.83;;;;;;;-142.65;89.55;50174.75;5115474;28;20198;-70
2022/11/04 05:22:55;;;;;;;3.40;3.10;;;;;;;-142.65;89.71;50170.78;5115392;28;20790;-70
2022/11/04 05:25:21;;;;;;;3.33;3.33;;;;;;;;;;5114800;28;20228;-70
2022/11/04 05:27:48;;;;;;;3.00;2.90;;;;;;;-142.65;89.60;50170.78;5115448;28;20169;-70
2022/11/04 05:30:14;;;;;;;2.33;2.27;;;;;;;-142.65;89.68;50176.75;5115158;28;20190;-70
2022/11/04 05:32:40;;;;;;;8.47;2.47;;;;;;;-142.65;89.36;50174.75;5114920;28;20208;-70
2022/11/04 05:35:07;;;;;;;3.23;3.03;;;;;;;-142.65;89.36;50174.75;5115303;28;20211;-70
2022/11/04 05:37:34;;;;;;;5.43;3.17;;;;;;;-142.65;89.47;50182.72;5115126;28;20195;-70
2022/11/04 05:40:00;;;;;;;3.73;3.60;;;;;;;-142.65;89.71;50174.75;5114910;28;20179;-70
2022/11/04 05:42:26;;;;;;;6.07;3.10;;;;;;;-142.65;89.72;50174.75;5115157;28;20214;-70
2022/11/04 05:44:53;;;;;;;2.73;2.63;;;;;;;-142.65;89.52;50178.75;5115109;28;20184;-70
2022/11/04 05:47:19;;;;;;;2.73;2.73;;;;;;;-142.65;89.52;50182.72;5115108;28;20192;-70
2022/11/04 05:49:45;;;;;;;6.03;3.27;;;;;;;-142.65;89.55;50176.75;5115674;28;20193;-70
2022/11/04 05:52:12;;;;;;;2.73;2.63;;;;;;;-142.65;89.63;50174.75;5115143;28;20214;-70
2022/11/04 05:54:38;;;;;;;3.47;3.43;;;;;;;-142.65;89.65;50182.72;5114712;28;20201;-70
2022/11/04 05:57:04;;;;;;;3.30;3.10;;;;;;;-142.65;89.15;50174.75;5114663;28;20195;-70
2022/11/04 05:59:31;;;;;;;7.70;2.73;;;;;;;-142.65;89.02;50172.78;5114924;28;20188;-70
2022/11/04 06:01:57;;;;;;;6.10;3.30;;;;;;;-142.65;89.25;50172.78;5114822;28;20211;-70
2022/11/04 06:04:24;;;;;;;3.40;3.27;;;;;;;-142.65;89.39;50178.75;5114791;28;20173;-70
2022/11/04 06:06:50;;;;;;;7.43;3.63;;;;;;;-142.65;89.60;50172.78;5114601;28;20183;-70
2022/11/04 06:09:17;;;;;;;3.50;3.30;;;;;;;-142.65;89.31;50174.75;5114513;28;20246;-70
2022/11/04 06:11:44;;;;;;;2.73;2.53;;;;;;;-142.65;89.04;50174.75;5114458;28;20207;-70
2022/11/04 06:14:10;;;;;;;3.37;3.27;;;;;;;-142.65;88.77;50174.75;5114232;28;20200;-70
2022/11/04 06:16:43;;;;;;;3.40;3.20;;;;;;;-142.65;88.83;50174.75;5114425;28;20194;-70
2022/11/04 06:19:10;;;;;;;6.30;3.10;;;;;;;-142.65;88.55;50174.75;5114105;28;20189;-70
2022/11/04 06:21:41;;;;;;;3.20;3.00;;;;;;;-142.65;88.73;50178.75;5114104;28;20315;-70
2022/11/04 06:24:07;;;;;;;3.33;3.07;;;;;;;-142.65;88.87;50174.75;5114022;28;20192;-70
2022/11/04 06:26:34;;;;;;;4.00;3.60;;;;;;;-142.65;88.60;50170.78;5114049;28;20184;-70
2022/11/04 06:29:00;;;;;;;8.27;3.67;;;;;;;-142.65;88.73;50180.75;5114014;28;20195;-70
2022/11/04 06:31:27;;;;;;;3.97;3.80;;;;;;;-142.65;88.66;50182.72;5114136;28;20212;-70
2022/11/04 06:33:53;;;;;;;3.30;3.20;;;;;;;-142.65;88.62;50180.75;5114172;28;20549;-70
2022/11/04 06:36:19;;;;;;;4.10;3.80;;;;;;;-142.65;88.52;50178.75;5113824;28;20211;-70
2022/11/04 06:38:46;;;;;;;8.40;3.50;;;;;;;-142.65;88.23;50182.72;5113662;28;20195;-70
2022/11/04 06:41:15;;;;;;;3.37;3.27;;;;;;;-142.65;87.94;50174.75;5114047;28;20200;-70
2022/11/04 06:43:41;;;;;;;3.37;3.17;;;;;;;-142.65;88.06;50172.78;5114276;28;20194;-70
2022/11/04 06:46:39;;;;;;;3.17;3.00;;;;;;;-142.65;88.07;50182.72;5113726;28;20219;-70
2022/11/04 06:49:10;;;;;;;3.40;3.30;;;;;;;-142.65;88.25;50178.75;5113711;28;20185;-70
2022/11/04 06:51:37;;;;;;;3.17;3.07;;;;;;;-142.65;88.36;50180.75;5113922;28;20207;-70
2022/11/04 06:54:03;;;;;;;3.77;3.47;;;;;;;-142.65;88.35;50178.75;5113641;28;20184;-70
2022/11/04 06:56:30;;;;;;;5.53;3.87;;;;;;;-142.65;88.20;50178.75;5113899;28;20214;-70
2022/11/04 06:58:56;;;;;;;5.03;3.03;;;;;;;-142.65;87.90;50172.78;5114207;28;20257;-70
2022/11/04 07:01:27;;;;;;;4.23;3.20;;;;;;;-142.65;87.67;50174.75;5113559;28;20232;-70
2022/11/04 07:03:56;;;;;;;3.90;3.80;;;;;;;-142.65;87.68;50178.75;5113820;28;20179;-70
2022/11/04 07:06:23;;;;;;;4.00;3.80;;;;;;;-142.65;87.79;50168.78;5113878;28;20522;-70
2022/11/04 07:08:51;;;;;;;4.20;3.30;;;;;;;-142.65;87.33;50172.78;5113447;28;20228;-70
2022/11/04 07:11:19;;;;;;;7.77;3.30;;;;;;;;;;5113601;28;20183;-70
2022/11/04 07:13:46;;;;;;;4.57;4.00;;;;;;;;;;5113402;28;20659;-70
2022/11/04 07:16:14;;;;;;;4.20;3.90;;;;;;;-142.65;87.60;50172.78;5113381;28;20200;-70
2022/11/04 07:18:40;;;;;;;3.20;3.10;;;;;;;-142.65;87.44;50174.75;5095401;28;20296;-70
2022/11/04 07:21:08;;;;;;;3.87;3.73;;;;;;;-142.65;87.42;50174.75;5113671;28;20192;-70
2022/11/04 07:23:36;;;;;;;5.73;4.07;;;;;;;-142.65;87.31;50174.75;5113894;28;20193;-70
2022/11/04 07:26:05;;;;;;;4.47;4.10;;;;;;;-142.65;87.27;50172.78;5113350;28;20203;-70
2022/11/04 07:28:32;;;;;;;6.93;3.90;;;;;;;-142.65;87.34;50180.75;5113932;28;20182;-70
2022/11/04 07:31:00;;;;;;;10.80;3.70;;;;;;;-142.65;87.31;50180.75;5113876;28;20188;-70
2022/11/04 07:33:27;;;;;;;5.03;3.30;;;;;;;-142.65;87.44;50174.75;5113429;28;20686;-70
2022/11/04 07:35:54;;;;;;;3.73;3.53;;;;;;;-142.65;87.64;50180.75;5113118;28;20204;-70
2022/11/04 07:38:23;;;;;;;4.30;4.10;;;;;;;-142.65;87.59;50176.75;5113450;28;20604;-70
2022/11/04 07:40:50;;;;;;;4.23;4.03;;;;;;;-142.65;87.95;50178.75;5113373;28;20193;-70
2022/11/04 07:43:16;;;;;;;5.47;5.00;;;;;;;-142.65;87.91;50170.78;5113401;28;20213;-70
2022/11/04 07:45:44;;;;;;;6.87;6.47;;;;;;;-142.65;87.90;50180.75;5095013;28;20279;-70
2022/11/04 07:48:11;;;;;;;5.50;5.10;;;;;;;-142.65;87.79;50182.72;5114628;28;20537;-70
2022/11/04 07:50:39;;;;;;;6.33;5.17;;;;;;;-142.65;87.79;50172.78;5117270;28;20189;-70
2022/11/04 07:53:06;;;;;;;5.03;4.60;;;;;;;-142.65;87.68;50182.72;5116880;28;20211;-70
2022/11/04 07:55:36;;;;;;;4.17;4.00;;;;;;;-142.65;87.74;50170.78;5117096;28;20204;-70
2022/11/04 07:58:09;;;;;;;4.83;4.57;;;;;;;-142.65;87.55;50170.78;5117148;28;20262;-70
2022/11/04 08:00:36;;;;;;;4.83;4.50;;;;;;;-142.65;87.69;50178.75;5116788;28;20195;-70
2022/11/04 08:03:02;;;;;;;4.67;4.47;;;;;;;-142.65;87.68;50182.72;5116709;28;20205;-70
2022/11/04 08:05:29;;;;;;;5.87;5.30;;;;;;;-142.65;87.79;50174.75;5116610;28;20181;-70
2022/11/04 08:07:56;;;;;;;12.97;6.10;;;;;;;-142.65;87.76;50168.78;5116845;28;20177;-70
2022/11/04 08:10:22;;;;;;;4.40;4.20;;;;;;;-142.65;87.92;50168.78;5116608;28;20185;-70
2022/11/04 08:12:50;;;;;;;4.73;4.27;;;;;;;-142.65;87.94;50168.78;5116512;28;20201;-70
2022/11/04 08:15:16;;;;;;;6.87;4.47;;;;;;;-142.65;87.63;50170.78;5116402;28;20697;-70
2022/11/04 08:17:43;;;;;;;4.40;4.10;;;;;;;-142.65;87.56;50170.78;5116451;28;20195;-70
2022/11/04 08:20:10;;;;;;;4.77;4.00;;;;;;;-142.65;87.42;50182.72;5117228;28;20193;-70
2022/11/04 08:22:36;;;;;;;3.87;3.57;;;;;;;-142.65;86.85;50174.75;5097963;28;20213;-70
2022/11/04 08:25:03;;;;;;;11.53;4.33;;;;;;;;;;5116322;28;20185;-70
2022/11/04 08:27:29;;;;;;;5.57;5.10;;;;;;;-142.65;85.07;50182.72;5117044;28;20200;-70
2022/11/04 08:29:56;;;;;;;5.80;5.60;;;;;;;-142.65;84.70;50174.75;5116501;28;20666;-70
2022/11/04 08:32:22;;;;;;;5.57;5.17;;;;;;;;;;5116190;28;20209;-70
2022/11/04 08:34:49;;;;;;;14.47;5.30;;;;;;;-142.65;84.46;50176.75;5116102;28;20559;-70
2022/11/04 08:37:15;;;;;;;5.57;5.10;;;;;;;-142.65;84.36;50168.78;5116524;28;20205;-70
2022/11/04 08:39:42;;;;;;;10.00;5.27;;;;;;;-142.65;84.12;50170.78;5116381;28;20552;-70
2022/11/04 08:42:09;;;;;;;7.13;4.70;;;;;;;-142.65;83.48;50168.78;5115893;28;20204;-70
2022/11/04 08:44:35;;;;;;;5.67;5.23;;;;;;;-142.65;83.84;50168.78;5116178;28;20189;-70
2022/11/04 08:47:02;;;;;;;9.43;3.87;;;;;;;-142.65;83.33;50170.78;5115792;28;20624;-70
2022/11/04 08:49:29;;;;;;;7.40;3.57;;;;;;;-142.65;83.37;50172.78;5115921;28;20608;-70
2022/11/04 08:51:58;;;;;;;2.60;2.60;;;;;;;-142.65;83.86;50174.75;5115646;28;20572;-70
2022/11/04 08:54:26;;;;;;;3.50;3.30;;;;;;;-142.65;83.82;50168.78;5116171;28;20181;-70
2022/11/04 08:56:53;;;;;;;3.03;2.90;;;;;;;-142.65;83.94;50170.78;5115624;28;20685;-70
2022/11/04 08:59:19;;;;;;;3.70;3.10;;;;;;;-142.65;84.81;50170.78;5115251;28;20185;-70
2022/11/04 09:01:46;;;;;;;6.53;3.53;;;;;;;-142.65;86.19;50172.78;5115518;28;20203;-70
2022/11/04 09:04:12;;;;;;;3.50;2.40;;;;;;;-142.65;87.47;50182.72;5115583;28;20223;-70
2022/11/04 09:06:42;;;;;;;3.03;2.73;;;;;;;-142.65;87.84;50174.75;5115501;28;20185;-70
2022/11/04 09:09:11;;;;;;;5.60;3.20;;;;;;;-142.65;88.75;50174.75;5115481;28;20208;-70
2022/11/04 09:11:40;;;;;;;6.73;3.17;;;;;;;-142.65;88.51;50170.78;5115382;28;20209;-70
2022/11/04 09:14:06;;;;;;;7.63;3.90;;;;;;;-142.65;88.53;50178.75;5115390;28;20201;-70
2022/11/04 09:16:34;;;;;;;6.63;3.77;;;;;;;-142.65;88.58;50182.72;5115275;28;20212;-70
2022/11/04 09:19:01;;;;;;;3.03;2.67;;;;;;;-142.65;88.77;50172.78;5115570;28;20177;-70
2022/11/04 09:21:28;;;;;;;3.60;2.97;;;;;;;-142.65;88.75;50170.78;5115118;28;20576;-70
2022/11/04 09:23:54;;;;;;;6.43;3.33;;;;;;;-142.65;88.16;50168.78;5096999;28;20196;-70
2022/11/04 09:26:22;;;;;;;7.27;2.60;;;;;;;-142.65;88.34;50170.78;5115161;28;20185;-70
2022/11/04 09:28:56;;;;;;;5.23;2.83;;;;;;;-142.65;88.49;50176.75;5115023;28;20180;-70
2022/11/04 09:31:25;;;;;;;3.83;2.87;;;;;;;-142.65;88.04;50182.72;5115402;28;20261;-70
2022/11/04 09:33:53;;;;;;;5.40;4.53;;;;;;;-142.65;88.06;50182.72;5115520;28;20185;-70
2022/11/04 09:36:20;;;;;;;3.70;3.40;;;;;;;-142.65;88.28;50170.78;5115702;28;20560;-70
2022/11/04 09:38:46;;;;;;;3.60;3.30;;;;;;;-142.65;88.53;50182.72;5114923;28;20191;-70
2022/11/04 09:41:28;;;;;;;5.50;3.80;;;;;;;-142.65;88.39;50172.78;5114745;28;20185;-70
2022/11/04 09:44:00;;;;;;;6.87;3.93;;;;;;;-142.65;88.18;50174.75;5115087;28;20188;-70
2022/11/04 09:46:30;;;;;;;3.90;3.20;;;;;;;-142.65;88.36;50168.78;5115318;28;20170;-70
2022/11/04 09:49:01;;;;;;;3.80;3.27;;;;;;;-142.65;88.36;50172.78;5115006;28;20176;-70
2022/11/04 09:51:27;;;;;;;3.93;2.87;;;;;;;-142.65;88.46;50174.75;5114845;28;20222;-70
2022/11/04 09:54:31;;;;;;;6.57;3.00;;;;;;;-142.65;88.13;50168.78;5099653;28;20193;-70
2022/11/04 09:57:00;;;;;;;2.87;2.73;;;;;;;-142.65;88.31;50174.75;5115081;28;20216;-70
2022/11/04 09:59:28;;;;;;;3.60;3.43;;;;;;;;;;5115003;28;20195;-70
2022/11/04 10:02:15;;;;;;;3.20;2.27;;;;;;;-142.65;88.35;50170.78;5114899;28;20208;-70
2022/11/04 10:05:01;;;;;;;8.50;3.17;;;;;;;-142.65;88.31;50172.78;5114718;28;20256;-70
2022/11/04 10:07:51;;;;;;;4.43;3.00;;;;;;;-142.65;87.35;50162.81;5114872;28;20173;-70
2022/11/04 10:10:42;;;;;;;3.20;3.10;;;;;;;-142.65;87.22;50172.78;5114628;28;20182;-70
2022/11/04 10:13:26;;;;;;;3.77;3.67;;;;;;;-142.65;86.56;50170.78;5113986;28;20209;-70
2022/11/04 10:16:25;;;;;;;2.80;2.67;;;;;;;-142.65;86.60;50182.72;5095930;28;20216;-70
2022/11/04 10:19:07;;;;;;;4.80;2.97;;;;;;;-142.65;86.80;50170.78;5094500;28;20213;-70
2022/11/04 10:21:39;;;;;;;2.53;2.43;;;;;;;-142.65;86.85;50168.78;5114647;28;20292;-70
2022/11/04 10:24:14;;;;;;;7.13;3.40;;;;;;;-142.65;87.18;50178.75;5114110;28;20193;-70
2022/11/04 10:26:45;;;;;;;7.10;2.87;;;;;;;-142.65;87.44;50170.78;5114035;28;20169;-70
2022/11/04 10:29:36;;;;;;;2.93;2.83;;;;;;;-142.65;87.81;50172.78;5114309;28;20548;-70
2022/11/04 10:32:13;;;;;;;2.57;2.57;;;;;;;-142.65;87.97;50178.75;5114091;28;20216;-70
2022/11/04 10:34:54;;;;;;;5.40;3.80;;;;;;;-142.65;87.90;50182.72;5114233;28;20635;-70
2022/11/04 10:37:24;;;;;;;5.97;2.90;;;;;;;-142.65;87.66;50174.75;5113848;28;20190;-70
2022/11/04 10:39:54;;;;;;;4.03;2.97;;;;;;;-142.65;87.02;50170.78;5113830;28;20197;-70
2022/11/04 10:42:21;;;;;;;4.33;3.93;;;;;;;-142.65;85.75;50174.75;5113918;28;20211;-70
2022/11/04 10:44:50;;;;;;;7.97;3.47;;;;;;;-142.65;85.27;50170.78;5113787;28;20191;-70
2022/11/04 10:48:02;;;;;;;3.40;3.20;;;;;;;-142.65;82.28;50168.78;5114049;28;20188;-70
2022/11/04 10:50:47;;;;;;;4.00;3.10;;;;;;;-142.65;81.51;50162.81;5113976;28;20670;-70
2022/11/04 10:53:19;;;;;;;3.43;3.23;;;;;;;-142.65;81.79;50170.78;5113658;28;20719;-70
2022/11/04 10:56:04;;;;;;;2.70;2.70;;;;;;;-142.65;81.41;50168.78;5114223;28;20174;-70
2022/11/04 10:58:34;;;;;;;4.37;3.27;;;;;;;;;;5113964;28;20169;-70
2022/11/04 11:01:31;;;;;;;3.07;2.97;;;;;;;-142.65;81.61;50170.78;5095437;28;20186;-70
2022/11/04 11:03:58;;;;;;;3.57;3.37;;;;;;;-142.65;81.90;50176.75;5095349;28;20643;-70
2022/11/04 11:06:29;;;;;;;6.37;3.80;;;;;;;-142.65;81.89;50164.81;5113517;28;20230;-70
2022/11/04 11:09:13;;;;;;;3.83;3.63;;;;;;;-142.65;81.41;50172.78;5114168;28;20182;-70
2022/11/04 11:11:44;;;;;;;8.37;4.13;;;;;;;-142.65;79.62;50174.75;5113452;28;20219;-71
2022/11/04 11:14:40;;;;;;;4.20;3.90;;;;;;;-142.65;81.06;50174.75;5113534;28;20287;-70
2022/11/04 11:17:31;;;;;;;3.77;3.67;;;;;;;-142.65;81.13;50170.78;5092739;28;20219;-70
2022/11/04 11:19:59;;;;;;;6.27;3.90;;;;;;;-142.65;81.18;50174.75;5113713;28;20195;-70
2022/11/04 11:22:38;;;;;;;5.93;3.67;;;;;;;-142.65;83.13;50170.78;5113365;28;20205;-70
2022/11/04 11:25:22;;;;;;;3.97;3.70;;;;;;;-142.65;81.62;50172.78;5117926;28;20187;-70
2022/11/04 11:27:50;;;;;;;4.00;3.70;;;;;;;;;;5117881;28;20183;-70
2022/11/04 11:30:24;;;;;;;3.87;3.43;;;;;;;-142.65;83.41;50174.75;5117478;28;20196;-70
2022/11/04 11:33:03;;;;;;;3.60;3.27;;;;;;;-142.65;83.97;50170.78;5117546;28;20690;-70
2022/11/04 11:35:40;;;;;;;3.27;3.07;;;;;;;-142.65;84.22;50170.78;5117803;28;20178;-70
2022/11/04 11:38:16;;;;;;;5.40;3.50;;;;;;;;;;5099090;28;20194;-70
2022/11/04 11:40:42;;;;;;;4.30;4.00;;;;;;;-142.65;84.25;50182.72;5117438;28;20190;-70
2022/11/04 11:43:30;;;;;;;3.87;3.60;;;;;;;;;;5117780;28;20178;-70
2022/11/04 11:45:59;;;;;;;4.87;4.27;;;;;;;-142.65;84.06;50172.78;5117104;28;20188;-70
2022/11/04 11:48:28;;;;;;;5.37;4.87;;;;;;;-142.65;85.49;50178.75;5117330;28;20673;-70
2022/11/04 11:50:59;;;;;;;5.23;4.73;;;;;;;-142.65;85.51;50174.75;5117532;28;20196;-70
2022/11/04 11:53:34;;;;;;;4.10;3.80;;;;;;;-142.65;85.70;50170.78;5116888;28;20208;-70
2022/11/04 11:56:28;;;;;;;4.97;4.27;;;;;;;-142.65;85.85;50174.75;5116863;28;20538;-70
2022/11/04 11:59:41;;;;;;;3.93;3.90;;;;;;;-142.65;85.13;50176.75;5117471;28;20182;-70
2022/11/04 12:02:46;;;;;;;6.97;5.13;;;;;;;-142.65;84.75;50174.75;5116785;28;20209;-70
2022/11/04 12:05:17;;;;;;;4.57;4.20;;;;;;;-142.65;84.94;50172.78;5117228;28;20611;-70
2022/11/04 12:08:06;;;;;;;4.53;4.03;;;;;;;;;;5116398;28;20193;-70
2022/11/04 12:11:05;;;;;;;4.90;4.40;;;;;;;-142.65;85.23;50170.78;5116362;28;20197;-70
2022/11/04 12:13:48;;;;;;;5.30;4.83;;;;;;;-142.65;85.44;50170.78;5116534;28;20274;-70
2022/11/04 12:16:32;;;;;;;10.23;4.63;;;;;;;-142.65;85.35;50172.78;5116662;28;20205;-70
2022/11/04 12:19:19;;;;;;;4.40;4.23;;;;;;;-142.65;85.88;50172.78;5117080;28;20557;-70
2022/11/04 12:21:58;;;;;;;5.70;4.17;;;;;;;-142.65;86.22;50172.78;5116839;28;20570;-70